sensor_id;sensor_type;location;lat;lon;timestamp;P1;durP1;ratioP1;P2;durP2;ratioP2
51838;SDS011;37886;53.174;6.368;2023-02-26T00:00:54;7.78;;;5.47;;
51838;SDS011;37886;53.174;6.368;2023-02-26T00:03:21;10.82;;;4.32;;
51838;SDS011;37886;53.174;6.368;2023-02-26T00:05:46;7.78;;;4.13;;
51838;SDS011;37886;53.174;6.368;2023-02-26T00:08:12;11.77;;;5.05;;
51838;SDS011;37886;53.174;6.368;2023-02-26T00:10:38;11.60;;;5.22;;
51838;SDS011;37886;53.174;6.368;2023-02-26T00:13:03;9.90;;;4.38;;
51838;SDS011;37886;53.174;6.368;2023-02-26T00:15:30;7.57;;;4.32;;
51838;SDS011;37886;53.174;6.368;2023-02-26T00:18:07;8.90;;;5.25;;
51838;SDS011;37886;53.174;6.368;2023-02-26T00:20:37;9.38;;;4.53;;
51838;SDS011;37886;53.174;6.368;2023-02-26T00:23:03;8.07;;;4.82;;
51838;SDS011;37886;53.174;6.368;2023-02-26T00:25:29;7.00;;;5.35;;
51838;SDS011;37886;53.174;6.368;2023-02-26T00:27:55;8.38;;;4.43;;
51838;SDS011;37886;53.174;6.368;2023-02-26T00:30:21;8.98;;;5.10;;
51838;SDS011;37886;53.174;6.368;2023-02-26T00:32:47;8.60;;;5.10;;
51838;SDS011;37886;53.174;6.368;2023-02-26T00:35:13;8.27;;;4.30;;
51838;SDS011;37886;53.174;6.368;2023-02-26T00:40:37;10.65;;;4.72;;
51838;SDS011;37886;53.174;6.368;2023-02-26T00:43:12;8.77;;;5.35;;
51838;SDS011;37886;53.174;6.368;2023-02-26T00:45:38;6.25;;;4.97;;
51838;SDS011;37886;53.174;6.368;2023-02-26T00:48:18;8.05;;;5.22;;
51838;SDS011;37886;53.174;6.368;2023-02-26T00:51:12;5.15;;;4.68;;
51838;SDS011;37886;53.174;6.368;2023-02-26T00:53:57;7.18;;;4.05;;
51838;SDS011;37886;53.174;6.368;2023-02-26T00:56:30;6.00;;;4.82;;
51838;SDS011;37886;53.174;6.368;2023-02-26T00:58:55;10.63;;;5.25;;
51838;SDS011;37886;53.174;6.368;2023-02-26T01:01:22;8.63;;;4.40;;
51838;SDS011;37886;53.174;6.368;2023-02-26T01:03:47;6.63;;;4.30;;
51838;SDS011;37886;53.174;6.368;2023-02-26T01:06:14;9.63;;;4.50;;
51838;SDS011;37886;53.174;6.368;2023-02-26T01:08:54;6.70;;;4.97;;
51838;SDS011;37886;53.174;6.368;2023-02-26T01:11:32;6.15;;;4.90;;
51838;SDS011;37886;53.174;6.368;2023-02-26T01:13:59;7.30;;;3.95;;
51838;SDS011;37886;53.174;6.368;2023-02-26T01:16:26;8.27;;;4.82;;
51838;SDS011;37886;53.174;6.368;2023-02-26T01:18:57;9.33;;;4.90;;
51838;SDS011;37886;53.174;6.368;2023-02-26T01:21:28;15.48;;;4.75;;
51838;SDS011;37886;53.174;6.368;2023-02-26T01:23:58;10.85;;;5.00;;
51838;SDS011;37886;53.174;6.368;2023-02-26T01:26:27;9.77;;;4.63;;
51838;SDS011;37886;53.174;6.368;2023-02-26T01:28:53;12.98;;;5.07;;
51838;SDS011;37886;53.174;6.368;2023-02-26T01:33:57;9.27;;;4.55;;
51838;SDS011;37886;53.174;6.368;2023-02-26T01:36:30;10.80;;;4.30;;
51838;SDS011;37886;53.174;6.368;2023-02-26T01:39:10;8.70;;;4.97;;
51838;SDS011;37886;53.174;6.368;2023-02-26T01:41:53;9.07;;;5.13;;
51838;SDS011;37886;53.174;6.368;2023-02-26T01:49:28;10.50;;;4.35;;
51838;SDS011;37886;53.174;6.368;2023-02-26T01:52:02;7.20;;;4.20;;
51838;SDS011;37886;53.174;6.368;2023-02-26T01:54:33;8.40;;;4.20;;
51838;SDS011;37886;53.174;6.368;2023-02-26T01:57:03;8.73;;;5.05;;
51838;SDS011;37886;53.174;6.368;2023-02-26T01:59:33;5.95;;;4.70;;
51838;SDS011;37886;53.174;6.368;2023-02-26T02:02:02;10.57;;;4.78;;
51838;SDS011;37886;53.174;6.368;2023-02-26T02:04:31;9.80;;;4.85;;
51838;SDS011;37886;53.174;6.368;2023-02-26T02:06:58;7.32;;;4.47;;
51838;SDS011;37886;53.174;6.368;2023-02-26T02:09:24;3.75;;;3.45;;
51838;SDS011;37886;53.174;6.368;2023-02-26T02:23:23;14.60;;;4.28;;
51838;SDS011;37886;53.174;6.368;2023-02-26T02:31:51;12.13;;;4.70;;
51838;SDS011;37886;53.174;6.368;2023-02-26T02:34:26;10.07;;;4.63;;
51838;SDS011;37886;53.174;6.368;2023-02-26T02:37:01;7.82;;;3.80;;
51838;SDS011;37886;53.174;6.368;2023-02-26T02:39:30;12.80;;;4.28;;
51838;SDS011;37886;53.174;6.368;2023-02-26T02:42:06;10.95;;;4.60;;
51838;SDS011;37886;53.174;6.368;2023-02-26T02:44:39;12.52;;;3.75;;
51838;SDS011;37886;53.174;6.368;2023-02-26T02:47:09;10.40;;;4.85;;
51838;SDS011;37886;53.174;6.368;2023-02-26T02:49:40;9.88;;;4.25;;
51838;SDS011;37886;53.174;6.368;2023-02-26T02:52:21;9.43;;;4.30;;
51838;SDS011;37886;53.174;6.368;2023-02-26T02:55:12;7.90;;;4.43;;
51838;SDS011;37886;53.174;6.368;2023-02-26T02:57:44;8.20;;;4.50;;
51838;SDS011;37886;53.174;6.368;2023-02-26T03:00:17;5.75;;;4.38;;
51838;SDS011;37886;53.174;6.368;2023-02-26T03:05:28;11.07;;;4.22;;
51838;SDS011;37886;53.174;6.368;2023-02-26T03:07:55;11.43;;;4.40;;
51838;SDS011;37886;53.174;6.368;2023-02-26T03:10:24;14.13;;;4.72;;
51838;SDS011;37886;53.174;6.368;2023-02-26T03:12:50;9.35;;;4.35;;
51838;SDS011;37886;53.174;6.368;2023-02-26T03:15:16;5.68;;;3.83;;
51838;SDS011;37886;53.174;6.368;2023-02-26T03:17:59;11.65;;;4.10;;
51838;SDS011;37886;53.174;6.368;2023-02-26T03:20:33;7.25;;;4.38;;
51838;SDS011;37886;53.174;6.368;2023-02-26T03:23:13;5.88;;;4.00;;
51838;SDS011;37886;53.174;6.368;2023-02-26T03:25:49;5.10;;;3.90;;
51838;SDS011;37886;53.174;6.368;2023-02-26T03:31:01;5.15;;;4.20;;
51838;SDS011;37886;53.174;6.368;2023-02-26T03:41:06;5.10;;;3.85;;
51838;SDS011;37886;53.174;6.368;2023-02-26T03:43:46;10.93;;;4.82;;
51838;SDS011;37886;53.174;6.368;2023-02-26T03:46:20;9.77;;;4.78;;
51838;SDS011;37886;53.174;6.368;2023-02-26T03:48:51;8.68;;;4.15;;
51838;SDS011;37886;53.174;6.368;2023-02-26T03:51:20;10.45;;;4.30;;
51838;SDS011;37886;53.174;6.368;2023-02-26T03:53:48;8.45;;;3.78;;
51838;SDS011;37886;53.174;6.368;2023-02-26T03:56:23;7.47;;;3.80;;
51838;SDS011;37886;53.174;6.368;2023-02-26T03:58:54;15.90;;;4.65;;
51838;SDS011;37886;53.174;6.368;2023-02-26T04:01:24;8.38;;;3.95;;
51838;SDS011;37886;53.174;6.368;2023-02-26T04:03:56;11.18;;;3.95;;
51838;SDS011;37886;53.174;6.368;2023-02-26T04:06:25;7.97;;;3.80;;
51838;SDS011;37886;53.174;6.368;2023-02-26T04:08:52;8.98;;;4.00;;
51838;SDS011;37886;53.174;6.368;2023-02-26T04:11:19;13.68;;;4.38;;
51838;SDS011;37886;53.174;6.368;2023-02-26T04:13:46;5.90;;;4.53;;
51838;SDS011;37886;53.174;6.368;2023-02-26T04:16:12;10.93;;;4.38;;
51838;SDS011;37886;53.174;6.368;2023-02-26T04:18:38;7.03;;;4.53;;
51838;SDS011;37886;53.174;6.368;2023-02-26T04:21:05;11.75;;;3.95;;
51838;SDS011;37886;53.174;6.368;2023-02-26T04:23:31;10.00;;;4.38;;
51838;SDS011;37886;53.174;6.368;2023-02-26T04:25:56;8.27;;;3.67;;
51838;SDS011;37886;53.174;6.368;2023-02-26T04:28:22;8.85;;;4.03;;
51838;SDS011;37886;53.174;6.368;2023-02-26T04:30:48;8.38;;;4.25;;
51838;SDS011;37886;53.174;6.368;2023-02-26T04:33:13;8.52;;;4.20;;
51838;SDS011;37886;53.174;6.368;2023-02-26T04:35:42;7.25;;;4.25;;
51838;SDS011;37886;53.174;6.368;2023-02-26T04:38:08;10.30;;;4.00;;
51838;SDS011;37886;53.174;6.368;2023-02-26T04:40:33;8.50;;;3.65;;
51838;SDS011;37886;53.174;6.368;2023-02-26T04:42:59;6.25;;;4.28;;
51838;SDS011;37886;53.174;6.368;2023-02-26T04:45:25;11.07;;;4.15;;
51838;SDS011;37886;53.174;6.368;2023-02-26T04:47:50;3.80;;;3.40;;
51838;SDS011;37886;53.174;6.368;2023-02-26T04:50:16;5.75;;;3.53;;
51838;SDS011;37886;53.174;6.368;2023-02-26T04:52:42;7.20;;;3.72;;
51838;SDS011;37886;53.174;6.368;2023-02-26T04:55:08;9.20;;;4.35;;
51838;SDS011;37886;53.174;6.368;2023-02-26T04:57:34;6.10;;;4.15;;
51838;SDS011;37886;53.174;6.368;2023-02-26T04:59:59;4.55;;;3.72;;
51838;SDS011;37886;53.174;6.368;2023-02-26T05:02:25;4.28;;;3.83;;
51838;SDS011;37886;53.174;6.368;2023-02-26T05:04:51;5.22;;;4.32;;
51838;SDS011;37886;53.174;6.368;2023-02-26T05:07:16;8.80;;;3.78;;
51838;SDS011;37886;53.174;6.368;2023-02-26T05:09:42;6.22;;;3.88;;
51838;SDS011;37886;53.174;6.368;2023-02-26T05:12:08;6.47;;;3.40;;
51838;SDS011;37886;53.174;6.368;2023-02-26T05:14:33;12.77;;;4.10;;
51838;SDS011;37886;53.174;6.368;2023-02-26T05:16:59;6.15;;;4.30;;
51838;SDS011;37886;53.174;6.368;2023-02-26T05:19:25;6.05;;;3.63;;
51838;SDS011;37886;53.174;6.368;2023-02-26T05:21:50;10.50;;;3.88;;
51838;SDS011;37886;53.174;6.368;2023-02-26T05:24:16;7.90;;;3.65;;
51838;SDS011;37886;53.174;6.368;2023-02-26T05:26:42;9.50;;;3.83;;
51838;SDS011;37886;53.174;6.368;2023-02-26T05:29:08;5.65;;;3.85;;
51838;SDS011;37886;53.174;6.368;2023-02-26T05:31:33;9.43;;;4.15;;
51838;SDS011;37886;53.174;6.368;2023-02-26T05:33:59;11.57;;;3.72;;
51838;SDS011;37886;53.174;6.368;2023-02-26T05:36:25;6.22;;;4.40;;
51838;SDS011;37886;53.174;6.368;2023-02-26T05:38:50;6.97;;;3.78;;
51838;SDS011;37886;53.174;6.368;2023-02-26T05:41:18;5.22;;;3.42;;
51838;SDS011;37886;53.174;6.368;2023-02-26T05:43:43;12.40;;;4.13;;
51838;SDS011;37886;53.174;6.368;2023-02-26T05:46:09;10.15;;;3.90;;
51838;SDS011;37886;53.174;6.368;2023-02-26T05:48:35;6.47;;;4.05;;
51838;SDS011;37886;53.174;6.368;2023-02-26T05:51:01;5.65;;;4.07;;
51838;SDS011;37886;53.174;6.368;2023-02-26T05:53:27;7.72;;;4.00;;
51838;SDS011;37886;53.174;6.368;2023-02-26T05:55:52;9.00;;;3.72;;
51838;SDS011;37886;53.174;6.368;2023-02-26T05:58:18;6.88;;;3.85;;
51838;SDS011;37886;53.174;6.368;2023-02-26T06:00:44;14.27;;;4.05;;
51838;SDS011;37886;53.174;6.368;2023-02-26T06:03:10;7.20;;;3.72;;
51838;SDS011;37886;53.174;6.368;2023-02-26T06:05:36;6.47;;;3.70;;
51838;SDS011;37886;53.174;6.368;2023-02-26T06:08:02;6.20;;;3.78;;
51838;SDS011;37886;53.174;6.368;2023-02-26T06:10:29;11.73;;;4.85;;
51838;SDS011;37886;53.174;6.368;2023-02-26T06:12:55;6.88;;;4.32;;
51838;SDS011;37886;53.174;6.368;2023-02-26T06:15:21;9.98;;;4.30;;
51838;SDS011;37886;53.174;6.368;2023-02-26T06:17:47;6.93;;;4.07;;
51838;SDS011;37886;53.174;6.368;2023-02-26T06:20:13;8.07;;;3.90;;
51838;SDS011;37886;53.174;6.368;2023-02-26T06:22:39;7.80;;;3.47;;
51838;SDS011;37886;53.174;6.368;2023-02-26T06:25:04;4.95;;;3.55;;
51838;SDS011;37886;53.174;6.368;2023-02-26T06:27:30;6.53;;;4.18;;
51838;SDS011;37886;53.174;6.368;2023-02-26T06:29:56;9.50;;;3.75;;
51838;SDS011;37886;53.174;6.368;2023-02-26T06:32:22;10.73;;;4.00;;
51838;SDS011;37886;53.174;6.368;2023-02-26T06:34:48;5.53;;;3.83;;
51838;SDS011;37886;53.174;6.368;2023-02-26T06:37:13;5.30;;;3.92;;
51838;SDS011;37886;53.174;6.368;2023-02-26T06:39:40;6.60;;;3.92;;
51838;SDS011;37886;53.174;6.368;2023-02-26T06:42:06;5.97;;;3.70;;
51838;SDS011;37886;53.174;6.368;2023-02-26T06:44:32;6.35;;;4.05;;
51838;SDS011;37886;53.174;6.368;2023-02-26T06:46:57;7.57;;;3.95;;
51838;SDS011;37886;53.174;6.368;2023-02-26T06:49:23;5.55;;;4.57;;
51838;SDS011;37886;53.174;6.368;2023-02-26T06:51:49;5.20;;;3.67;;
51838;SDS011;37886;53.174;6.368;2023-02-26T06:54:14;8.48;;;4.20;;
51838;SDS011;37886;53.174;6.368;2023-02-26T06:56:40;5.63;;;3.80;;
51838;SDS011;37886;53.174;6.368;2023-02-26T06:59:06;5.18;;;4.75;;
51838;SDS011;37886;53.174;6.368;2023-02-26T07:01:31;8.30;;;4.93;;
51838;SDS011;37886;53.174;6.368;2023-02-26T07:03:57;7.95;;;4.00;;
51838;SDS011;37886;53.174;6.368;2023-02-26T07:06:23;8.55;;;4.15;;
51838;SDS011;37886;53.174;6.368;2023-02-26T07:08:49;9.70;;;4.18;;
51838;SDS011;37886;53.174;6.368;2023-02-26T07:11:14;13.88;;;4.63;;
51838;SDS011;37886;53.174;6.368;2023-02-26T07:13:40;6.53;;;4.78;;
51838;SDS011;37886;53.174;6.368;2023-02-26T07:16:06;4.70;;;4.28;;
51838;SDS011;37886;53.174;6.368;2023-02-26T07:18:32;10.70;;;5.05;;
51838;SDS011;37886;53.174;6.368;2023-02-26T07:20:59;7.72;;;4.95;;
51838;SDS011;37886;53.174;6.368;2023-02-26T07:23:25;9.55;;;6.60;;
51838;SDS011;37886;53.174;6.368;2023-02-26T07:25:51;13.00;;;7.35;;
51838;SDS011;37886;53.174;6.368;2023-02-26T07:28:17;14.25;;;7.28;;
51838;SDS011;37886;53.174;6.368;2023-02-26T07:30:44;10.98;;;5.43;;
51838;SDS011;37886;53.174;6.368;2023-02-26T07:33:10;12.25;;;5.05;;
51838;SDS011;37886;53.174;6.368;2023-02-26T07:35:36;8.70;;;4.65;;
51838;SDS011;37886;53.174;6.368;2023-02-26T07:38:02;7.05;;;4.18;;
51838;SDS011;37886;53.174;6.368;2023-02-26T07:40:28;9.93;;;5.63;;
51838;SDS011;37886;53.174;6.368;2023-02-26T07:42:54;9.90;;;4.30;;
51838;SDS011;37886;53.174;6.368;2023-02-26T07:45:20;7.47;;;4.63;;
51838;SDS011;37886;53.174;6.368;2023-02-26T07:47:50;13.32;;;4.50;;
51838;SDS011;37886;53.174;6.368;2023-02-26T07:50:17;12.10;;;5.25;;
51838;SDS011;37886;53.174;6.368;2023-02-26T07:52:44;10.13;;;5.85;;
51838;SDS011;37886;53.174;6.368;2023-02-26T07:55:10;11.70;;;5.18;;
51838;SDS011;37886;53.174;6.368;2023-02-26T07:57:37;9.30;;;5.75;;
51838;SDS011;37886;53.174;6.368;2023-02-26T08:00:03;7.88;;;4.95;;
51838;SDS011;37886;53.174;6.368;2023-02-26T08:02:29;11.35;;;4.78;;
51838;SDS011;37886;53.174;6.368;2023-02-26T08:04:55;9.45;;;5.30;;
51838;SDS011;37886;53.174;6.368;2023-02-26T08:07:21;10.23;;;5.72;;
51838;SDS011;37886;53.174;6.368;2023-02-26T08:09:47;6.75;;;4.68;;
51838;SDS011;37886;53.174;6.368;2023-02-26T08:12:13;5.15;;;4.65;;
51838;SDS011;37886;53.174;6.368;2023-02-26T08:14:38;8.75;;;4.75;;
51838;SDS011;37886;53.174;6.368;2023-02-26T08:17:06;8.68;;;5.07;;
51838;SDS011;37886;53.174;6.368;2023-02-26T08:19:32;7.32;;;5.72;;
51838;SDS011;37886;53.174;6.368;2023-02-26T08:21:58;11.18;;;5.47;;
51838;SDS011;37886;53.174;6.368;2023-02-26T08:24:23;10.98;;;4.75;;
51838;SDS011;37886;53.174;6.368;2023-02-26T08:26:49;12.10;;;4.20;;
51838;SDS011;37886;53.174;6.368;2023-02-26T08:29:15;15.55;;;4.43;;
51838;SDS011;37886;53.174;6.368;2023-02-26T08:31:41;8.63;;;4.50;;
51838;SDS011;37886;53.174;6.368;2023-02-26T08:34:07;9.15;;;3.47;;
51838;SDS011;37886;53.174;6.368;2023-02-26T08:36:33;11.52;;;3.97;;
51838;SDS011;37886;53.174;6.368;2023-02-26T08:38:58;7.40;;;3.53;;
51838;SDS011;37886;53.174;6.368;2023-02-26T08:41:24;5.65;;;4.63;;
51838;SDS011;37886;53.174;6.368;2023-02-26T08:43:53;9.60;;;4.38;;
51838;SDS011;37886;53.174;6.368;2023-02-26T08:46:18;5.93;;;3.60;;
51838;SDS011;37886;53.174;6.368;2023-02-26T08:48:44;12.40;;;3.67;;
51838;SDS011;37886;53.174;6.368;2023-02-26T08:51:10;6.70;;;4.03;;
51838;SDS011;37886;53.174;6.368;2023-02-26T08:53:35;4.53;;;3.58;;
51838;SDS011;37886;53.174;6.368;2023-02-26T08:56:01;8.90;;;4.18;;
51838;SDS011;37886;53.174;6.368;2023-02-26T08:58:27;8.98;;;3.70;;
51838;SDS011;37886;53.174;6.368;2023-02-26T09:00:53;6.07;;;3.70;;
51838;SDS011;37886;53.174;6.368;2023-02-26T09:03:18;5.15;;;3.20;;
51838;SDS011;37886;53.174;6.368;2023-02-26T09:05:44;9.10;;;4.07;;
51838;SDS011;37886;53.174;6.368;2023-02-26T09:08:10;11.60;;;3.97;;
51838;SDS011;37886;53.174;6.368;2023-02-26T09:10:37;11.00;;;3.88;;
51838;SDS011;37886;53.174;6.368;2023-02-26T09:13:03;8.60;;;3.97;;
51838;SDS011;37886;53.174;6.368;2023-02-26T09:15:28;9.02;;;3.85;;
51838;SDS011;37886;53.174;6.368;2023-02-26T09:17:54;8.73;;;3.60;;
51838;SDS011;37886;53.174;6.368;2023-02-26T09:20:20;4.40;;;3.05;;
51838;SDS011;37886;53.174;6.368;2023-02-26T09:22:45;4.25;;;3.20;;
51838;SDS011;37886;53.174;6.368;2023-02-26T09:25:12;7.32;;;3.30;;
51838;SDS011;37886;53.174;6.368;2023-02-26T09:27:39;5.85;;;3.17;;
51838;SDS011;37886;53.174;6.368;2023-02-26T09:30:05;5.28;;;3.13;;
51838;SDS011;37886;53.174;6.368;2023-02-26T09:32:31;9.02;;;3.65;;
51838;SDS011;37886;53.174;6.368;2023-02-26T09:34:57;5.90;;;3.70;;
51838;SDS011;37886;53.174;6.368;2023-02-26T09:37:23;6.55;;;3.50;;
51838;SDS011;37886;53.174;6.368;2023-02-26T09:39:48;5.43;;;3.42;;
51838;SDS011;37886;53.174;6.368;2023-02-26T09:45:24;7.75;;;3.63;;
51838;SDS011;37886;53.174;6.368;2023-02-26T09:47:54;4.93;;;3.30;;
51838;SDS011;37886;53.174;6.368;2023-02-26T09:50:24;8.93;;;3.80;;
51838;SDS011;37886;53.174;6.368;2023-02-26T09:56:03;4.50;;;3.13;;
51838;SDS011;37886;53.174;6.368;2023-02-26T09:58:33;3.30;;;3.03;;
51838;SDS011;37886;53.174;6.368;2023-02-26T10:12:06;8.07;;;3.63;;
51838;SDS011;37886;53.174;6.368;2023-02-26T10:17:35;6.22;;;3.65;;
51838;SDS011;37886;53.174;6.368;2023-02-26T10:20:19;8.32;;;3.53;;
51838;SDS011;37886;53.174;6.368;2023-02-26T10:25:20;4.70;;;3.35;;
51838;SDS011;37886;53.174;6.368;2023-02-26T10:32:53;9.10;;;3.63;;
51838;SDS011;37886;53.174;6.368;2023-02-26T10:35:22;8.45;;;3.33;;
51838;SDS011;37886;53.174;6.368;2023-02-26T10:38:00;8.65;;;3.40;;
51838;SDS011;37886;53.174;6.368;2023-02-26T10:51:33;4.75;;;3.65;;
51838;SDS011;37886;53.174;6.368;2023-02-26T10:54:03;6.68;;;3.65;;
51838;SDS011;37886;53.174;6.368;2023-02-26T10:56:30;7.53;;;3.72;;
51838;SDS011;37886;53.174;6.368;2023-02-26T10:58:57;7.35;;;3.83;;
51838;SDS011;37886;53.174;6.368;2023-02-26T11:01:24;6.55;;;3.90;;
51838;SDS011;37886;53.174;6.368;2023-02-26T11:03:59;7.75;;;4.00;;
51838;SDS011;37886;53.174;6.368;2023-02-26T11:06:30;6.28;;;3.60;;
51838;SDS011;37886;53.174;6.368;2023-02-26T11:09:00;6.55;;;3.88;;
51838;SDS011;37886;53.174;6.368;2023-02-26T11:11:34;11.52;;;3.60;;
51838;SDS011;37886;53.174;6.368;2023-02-26T11:14:05;6.15;;;3.47;;
51838;SDS011;37886;53.174;6.368;2023-02-26T11:16:32;6.80;;;3.30;;
51838;SDS011;37886;53.174;6.368;2023-02-26T11:18:59;8.10;;;5.07;;
51838;SDS011;37886;53.174;6.368;2023-02-26T11:21:28;9.25;;;4.00;;
51838;SDS011;37886;53.174;6.368;2023-02-26T11:24:03;5.93;;;3.30;;
51838;SDS011;37886;53.174;6.368;2023-02-26T11:26:54;7.18;;;3.80;;
51838;SDS011;37886;53.174;6.368;2023-02-26T11:29:21;8.02;;;3.78;;
51838;SDS011;37886;53.174;6.368;2023-02-26T11:31:54;9.63;;;4.38;;
51838;SDS011;37886;53.174;6.368;2023-02-26T11:34:25;11.73;;;4.32;;
51838;SDS011;37886;53.174;6.368;2023-02-26T11:36:52;6.28;;;3.92;;
51838;SDS011;37886;53.174;6.368;2023-02-26T11:39:22;10.45;;;3.80;;
51838;SDS011;37886;53.174;6.368;2023-02-26T11:41:52;6.32;;;3.63;;
51838;SDS011;37886;53.174;6.368;2023-02-26T11:44:27;7.13;;;4.00;;
51838;SDS011;37886;53.174;6.368;2023-02-26T11:46:56;8.88;;;4.00;;
51838;SDS011;37886;53.174;6.368;2023-02-26T11:49:23;4.78;;;3.47;;
51838;SDS011;37886;53.174;6.368;2023-02-26T11:52:05;10.10;;;3.95;;
51838;SDS011;37886;53.174;6.368;2023-02-26T11:54:50;10.13;;;4.38;;
51838;SDS011;37886;53.174;6.368;2023-02-26T11:57:25;7.45;;;4.18;;
51838;SDS011;37886;53.174;6.368;2023-02-26T11:59:53;5.18;;;3.97;;
51838;SDS011;37886;53.174;6.368;2023-02-26T12:02:23;7.93;;;4.43;;
51838;SDS011;37886;53.174;6.368;2023-02-26T12:04:53;6.67;;;3.93;;
51838;SDS011;37886;53.174;6.368;2023-02-26T12:07:20;6.20;;;3.63;;
51838;SDS011;37886;53.174;6.368;2023-02-26T12:09:47;6.30;;;4.13;;
51838;SDS011;37886;53.174;6.368;2023-02-26T12:14:53;10.05;;;4.68;;
51838;SDS011;37886;53.174;6.368;2023-02-26T12:20:23;7.38;;;3.95;;
51838;SDS011;37886;53.174;6.368;2023-02-26T12:23:20;10.98;;;4.35;;
51838;SDS011;37886;53.174;6.368;2023-02-26T12:26:24;10.18;;;4.78;;
51838;SDS011;37886;53.174;6.368;2023-02-26T12:53:42;9.95;;;5.25;;
51838;SDS011;37886;53.174;6.368;2023-02-26T12:59:18;11.00;;;5.28;;
51838;SDS011;37886;53.174;6.368;2023-02-26T13:04:28;8.95;;;5.30;;
51838;SDS011;37886;53.174;6.368;2023-02-26T13:09:52;6.88;;;4.93;;
51838;SDS011;37886;53.174;6.368;2023-02-26T13:18:01;7.60;;;4.85;;
51838;SDS011;37886;53.174;6.368;2023-02-26T13:20:35;7.00;;;4.90;;
51838;SDS011;37886;53.174;6.368;2023-02-26T13:23:09;6.25;;;5.20;;
51838;SDS011;37886;53.174;6.368;2023-02-26T13:25:42;10.48;;;5.22;;
51838;SDS011;37886;53.174;6.368;2023-02-26T13:31:04;10.63;;;5.40;;
51838;SDS011;37886;53.174;6.368;2023-02-26T13:33:35;6.47;;;5.00;;
51838;SDS011;37886;53.174;6.368;2023-02-26T13:36:03;8.45;;;5.03;;
51838;SDS011;37886;53.174;6.368;2023-02-26T13:39:24;7.38;;;4.68;;
51838;SDS011;37886;53.174;6.368;2023-02-26T13:41:43;6.57;;;5.45;;
51838;SDS011;37886;53.174;6.368;2023-02-26T13:53:32;9.80;;;5.10;;
51838;SDS011;37886;53.174;6.368;2023-02-26T13:59:03;12.57;;;4.50;;
51838;SDS011;37886;53.174;6.368;2023-02-26T14:01:50;8.48;;;4.50;;
51838;SDS011;37886;53.174;6.368;2023-02-26T14:06:48;12.75;;;5.63;;
51838;SDS011;37886;53.174;6.368;2023-02-26T14:23:12;5.90;;;5.28;;
51838;SDS011;37886;53.174;6.368;2023-02-26T14:26:00;7.28;;;5.20;;
51838;SDS011;37886;53.174;6.368;2023-02-26T14:28:32;9.75;;;5.15;;
51838;SDS011;37886;53.174;6.368;2023-02-26T14:33:43;13.35;;;5.43;;
51838;SDS011;37886;53.174;6.368;2023-02-26T14:36:13;8.63;;;5.55;;
51838;SDS011;37886;53.174;6.368;2023-02-26T14:38:44;6.28;;;5.68;;
51838;SDS011;37886;53.174;6.368;2023-02-26T14:41:22;11.25;;;5.25;;
51838;SDS011;37886;53.174;6.368;2023-02-26T14:43:56;9.02;;;5.32;;
51838;SDS011;37886;53.174;6.368;2023-02-26T14:46:26;8.88;;;5.65;;
51838;SDS011;37886;53.174;6.368;2023-02-26T14:48:52;5.97;;;5.38;;
51838;SDS011;37886;53.174;6.368;2023-02-26T14:53:57;7.53;;;5.28;;
51838;SDS011;37886;53.174;6.368;2023-02-26T14:57:13;7.30;;;5.25;;
51838;SDS011;37886;53.174;6.368;2023-02-26T15:11:49;12.32;;;5.55;;
51838;SDS011;37886;53.174;6.368;2023-02-26T15:23:03;10.85;;;5.38;;
51838;SDS011;37886;53.174;6.368;2023-02-26T15:25:34;16.35;;;5.68;;
51838;SDS011;37886;53.174;6.368;2023-02-26T15:28:06;12.48;;;5.50;;
51838;SDS011;37886;53.174;6.368;2023-02-26T15:30:37;15.68;;;5.22;;
51838;SDS011;37886;53.174;6.368;2023-02-26T15:33:04;8.70;;;5.05;;
51838;SDS011;37886;53.174;6.368;2023-02-26T15:35:36;6.85;;;4.55;;
51838;SDS011;37886;53.174;6.368;2023-02-26T15:38:01;8.18;;;4.93;;
51838;SDS011;37886;53.174;6.368;2023-02-26T15:40:32;13.07;;;5.55;;
51838;SDS011;37886;53.174;6.368;2023-02-26T15:42:59;10.93;;;5.18;;
51838;SDS011;37886;53.174;6.368;2023-02-26T15:45:34;8.45;;;5.05;;
51838;SDS011;37886;53.174;6.368;2023-02-26T15:48:05;7.72;;;4.13;;
51838;SDS011;37886;53.174;6.368;2023-02-26T15:50:35;6.72;;;4.03;;
51838;SDS011;37886;53.174;6.368;2023-02-26T15:55:36;8.73;;;4.53;;
51838;SDS011;37886;53.174;6.368;2023-02-26T15:58:07;10.80;;;4.32;;
51838;SDS011;37886;53.174;6.368;2023-02-26T16:00:34;10.75;;;4.75;;
51838;SDS011;37886;53.174;6.368;2023-02-26T16:03:01;16.23;;;4.57;;
51838;SDS011;37886;53.174;6.368;2023-02-26T16:05:28;9.93;;;4.85;;
51838;SDS011;37886;53.174;6.368;2023-02-26T16:07:55;5.25;;;4.35;;
51838;SDS011;37886;53.174;6.368;2023-02-26T16:10:31;7.43;;;4.57;;
51838;SDS011;37886;53.174;6.368;2023-02-26T16:13:02;10.38;;;4.22;;
51838;SDS011;37886;53.174;6.368;2023-02-26T16:15:34;8.15;;;4.75;;
51838;SDS011;37886;53.174;6.368;2023-02-26T16:18:06;20.05;;;4.45;;
51838;SDS011;37886;53.174;6.368;2023-02-26T16:20:41;5.95;;;4.22;;
51838;SDS011;37886;53.174;6.368;2023-02-26T16:23:16;8.10;;;4.15;;
51838;SDS011;37886;53.174;6.368;2023-02-26T16:25:57;8.70;;;4.15;;
51838;SDS011;37886;53.174;6.368;2023-02-26T16:28:30;9.95;;;4.03;;
51838;SDS011;37886;53.174;6.368;2023-02-26T16:31:10;4.47;;;3.75;;
51838;SDS011;37886;53.174;6.368;2023-02-26T16:33:41;6.82;;;4.13;;
51838;SDS011;37886;53.174;6.368;2023-02-26T16:36:20;8.32;;;4.18;;
51838;SDS011;37886;53.174;6.368;2023-02-26T16:39:00;8.73;;;4.60;;
51838;SDS011;37886;53.174;6.368;2023-02-26T16:41:37;10.30;;;4.78;;
51838;SDS011;37886;53.174;6.368;2023-02-26T16:44:47;7.63;;;4.75;;
51838;SDS011;37886;53.174;6.368;2023-02-26T16:46:53;9.88;;;4.03;;
51838;SDS011;37886;53.174;6.368;2023-02-26T16:51:47;8.23;;;3.92;;
51838;SDS011;37886;53.174;6.368;2023-02-26T16:54:19;9.20;;;3.70;;
51838;SDS011;37886;53.174;6.368;2023-02-26T16:57:06;8.07;;;4.03;;
51838;SDS011;37886;53.174;6.368;2023-02-26T16:59:39;10.70;;;4.65;;
51838;SDS011;37886;53.174;6.368;2023-02-26T17:02:12;8.52;;;3.65;;
51838;SDS011;37886;53.174;6.368;2023-02-26T17:04:43;7.50;;;4.13;;
51838;SDS011;37886;53.174;6.368;2023-02-26T17:07:14;9.88;;;4.55;;
51838;SDS011;37886;53.174;6.368;2023-02-26T17:09:48;9.52;;;3.78;;
51838;SDS011;37886;53.174;6.368;2023-02-26T17:12:16;10.15;;;4.07;;
51838;SDS011;37886;53.174;6.368;2023-02-26T17:14:46;10.60;;;4.10;;
51838;SDS011;37886;53.174;6.368;2023-02-26T17:17:20;10.80;;;3.42;;
51838;SDS011;37886;53.174;6.368;2023-02-26T17:19:47;10.25;;;3.70;;
51838;SDS011;37886;53.174;6.368;2023-02-26T17:22:14;8.10;;;3.55;;
51838;SDS011;37886;53.174;6.368;2023-02-26T17:24:42;5.63;;;3.33;;
51838;SDS011;37886;53.174;6.368;2023-02-26T17:27:21;13.18;;;3.80;;
51838;SDS011;37886;53.174;6.368;2023-02-26T17:29:52;14.35;;;6.30;;
51838;SDS011;37886;53.174;6.368;2023-02-26T17:32:20;7.80;;;3.80;;
51838;SDS011;37886;53.174;6.368;2023-02-26T17:34:48;11.15;;;4.07;;
51838;SDS011;37886;53.174;6.368;2023-02-26T17:37:15;6.65;;;3.85;;
51838;SDS011;37886;53.174;6.368;2023-02-26T17:39:41;10.82;;;3.67;;
51838;SDS011;37886;53.174;6.368;2023-02-26T17:42:08;7.30;;;3.42;;
51838;SDS011;37886;53.174;6.368;2023-02-26T17:44:39;8.57;;;4.13;;
51838;SDS011;37886;53.174;6.368;2023-02-26T17:47:08;11.73;;;4.40;;
51838;SDS011;37886;53.174;6.368;2023-02-26T17:49:45;8.55;;;3.33;;
51838;SDS011;37886;53.174;6.368;2023-02-26T17:52:11;8.82;;;3.83;;
51838;SDS011;37886;53.174;6.368;2023-02-26T17:54:37;10.05;;;4.32;;
51838;SDS011;37886;53.174;6.368;2023-02-26T17:57:04;9.65;;;4.00;;
51838;SDS011;37886;53.174;6.368;2023-02-26T17:59:30;10.40;;;3.95;;
51838;SDS011;37886;53.174;6.368;2023-02-26T18:01:56;8.30;;;3.95;;
51838;SDS011;37886;53.174;6.368;2023-02-26T18:04:22;4.93;;;3.72;;